EHKD METAR and TAF | Updated Today

EHKD METAR

De Kooy Airport

Observation time: 26 min. ago

EHKD 080655Z AUTO 18015KT 160V220 9999 BKN018 BKN021 OVC024 05/03 Q0990 WHT NOSIG

Need help? Read our tutorial on how to read METARs or read the parsed version below.

De Kooy Airport (EHKD) METAR

  • Weather conditions on Wed, 08 Dec 2021 06:55:00 +0000 (26 min. ago):
  • Present conditions: Dry
  • Clouds: Broken sky at 549 meters; broken sky at 640 meters; overcast sky at 732 meters
  • Visibility: Greater than 10 km
  • Wind: 180 degrees at 15 knots
  • Temperature: 5 celsius
  • Dew point: 3 celsius
  • Pressure: 990 millibars
  • Remarks: None


Useful to know...

EHKD TAF

De Kooy Airport

TAF COR EHKD 080508Z 0806/0818 18015KT 9999 FEW015 SCT020 BKN030 PROB30 TEMPO 0806/0808 4000 SHRA SCT015 SCT020CB
Observation time: 2:13 hr. ago
Need help? Read our tutorial on how to read TAFs or read the parsed version below.

Parsed version of TAF for De Kooy Airport (EHKD)

  • From 08 December at 06:00 UTC, to day 08 of the month at 18:00 UTC
  • Clouds: A few at 457 meters; scattered at 610 meters; broken sky at 914 meters
  • Visibility: Greater than 10 km
  • Wind: 180 degrees at 15
  • Expected to arise temporarily, from 08 December at 06:00 UTC, to day 08 of the month at 08:00 UTC
    Probability of 30%
  • Clouds: Scattered at 457 meters; scattered at 610 meters, cumulonimbus
  • Visibility: 4000 meters
  • Other: Showers of rain